Time;durP1;ratioP1;P1;durP2;ratioP2;P2;SDS_P1;SDS_P2;PMS_P1;PMS_P2;Temp;Humidity;BMP_temperature;BMP_pressure;BME280_temperature;BME280_humidity;BME280_pressure;Samples;Min_cycle;Max_cycle;Signal;HPM_P1;HPM_P2
2023/06/24 00:00:53;;;;;;;0.50;0.50;;;22.30;58.80;;;;;;8314837;28;20038;-52
2023/06/24 00:04:54;;;;;;;0.50;0.50;;;22.40;58.90;;;;;;8296962;28;20034;-50
2023/06/24 00:09:00;;;;;;;0.60;0.60;;;22.30;58.80;;;;;;8299658;28;20057;-52
2023/06/24 00:13:02;;;;;;;0.52;0.52;;;22.30;58.80;;;;;;8297784;28;20030;-50
2023/06/24 00:17:02;;;;;;;0.52;0.52;;;22.40;58.80;;;;;;8298415;28;20041;-52
2023/06/24 00:21:03;;;;;;;0.43;0.43;;;22.30;58.80;;;;;;8298183;28;20044;-52
2023/06/24 00:25:05;;;;;;;0.50;0.50;;;22.30;58.80;;;;;;8297646;28;20065;-50
2023/06/24 00:29:05;;;;;;;0.55;0.55;;;22.30;58.80;;;;;;8297704;28;20069;-52
2023/06/24 00:33:09;;;;;;;0.52;0.52;;;22.30;58.80;;;;;;8297068;28;20026;-52
2023/06/24 00:37:10;;;;;;;0.60;0.60;;;22.30;58.80;;;;;;8298219;28;20041;-52
2023/06/24 00:41:10;;;;;;;0.57;0.57;;;22.30;58.80;;;;;;8297169;28;20200;-52
2023/06/24 00:45:12;;;;;;;0.70;0.70;;;22.30;58.80;;;;;;8296889;28;20093;-51
2023/06/24 00:49:14;;;;;;;0.40;0.40;;;22.30;58.80;;;;;;8311837;28;20424;-53
2023/06/24 00:53:16;;;;;;;0.82;0.60;;;22.30;58.90;;;;;;8297830;28;20480;-51
2023/06/24 00:57:19;;;;;;;1.20;0.60;;;22.30;58.90;;;;;;8289667;28;20547;-51
2023/06/24 01:01:20;;;;;;;0.57;0.57;;;22.30;58.90;;;;;;8264161;28;20477;-51
2023/06/24 01:05:23;;;;;;;0.50;0.50;;;22.30;58.90;;;;;;8264485;28;20668;-51
2023/06/24 01:09:24;;;;;;;0.57;0.55;;;22.30;58.90;;;;;;8263748;28;20464;-49
2023/06/24 01:13:25;;;;;;;0.57;0.50;;;22.30;58.90;;;;;;8264711;28;20068;-52
2023/06/24 01:17:53;;;;;;;0.63;0.60;;;22.30;58.90;;;;;;8263501;28;20034;-51
2023/06/24 01:22:34;;;;;;;0.60;0.60;;;22.30;58.90;;;;;;8264712;28;20030;-51
2023/06/24 01:26:43;;;;;;;0.50;0.50;;;22.30;58.90;;;;;;8266571;28;20034;-52
2023/06/24 01:30:56;;;;;;;0.52;0.50;;;22.30;58.90;;;;;;8294840;28;20047;-52
2023/06/24 01:35:07;;;;;;;0.50;0.50;;;22.30;58.90;;;;;;8296781;28;20032;-52
2023/06/24 01:39:11;;;;;;;0.50;0.50;;;22.30;58.90;;;;;;8296419;28;20026;-52
2023/06/24 01:43:13;;;;;;;0.52;0.50;;;22.30;58.90;;;;;;8295171;28;20045;-51
2023/06/24 01:47:21;;;;;;;0.50;0.50;;;22.30;58.90;;;;;;8296083;28;20060;-52
2023/06/24 01:51:23;;;;;;;0.60;0.55;;;22.30;58.90;;;;;;8294703;28;20398;-51
2023/06/24 01:55:26;;;;;;;0.50;0.43;;;22.30;58.90;;;;;;8296278;28;20104;-51
2023/06/24 01:59:29;;;;;;;0.75;0.60;;;22.30;59.40;;;;;;8295204;28;20507;-52
2023/06/24 02:03:32;;;;;;;0.60;0.60;;;22.30;58.90;;;;;;8296254;28;20695;-52
2023/06/24 02:07:33;;;;;;;0.50;0.50;;;22.30;58.90;;;;;;8295280;28;20025;-51
2023/06/24 02:11:35;;;;;;;;;;;22.30;59.50;;;;;;8296101;28;20053;-51
2023/06/24 02:15:38;;;;;;;0.50;0.50;;;22.20;58.90;;;;;;8295614;28;19909;-51
2023/06/24 02:19:39;;;;;;;0.45;0.45;;;22.20;58.90;;;;;;8294757;28;20105;-52
2023/06/24 02:23:40;;;;;;;;;;;22.30;59.00;;;;;;8297149;28;20030;-51
2023/06/24 02:27:42;;;;;;;0.50;0.50;;;22.30;59.00;;;;;;8283852;28;19917;-51
2023/06/24 02:31:42;;;;;;;0.52;0.50;;;22.20;59.00;;;;;;8263522;28;20039;-52
2023/06/24 02:35:45;;;;;;;0.65;0.60;;;22.30;59.00;;;;;;8261077;28;20038;-51
2023/06/24 02:39:45;;;;;;;0.57;0.55;;;22.20;58.90;;;;;;8262021;28;20030;-51
2023/06/24 02:43:46;;;;;;;0.50;0.50;;;22.30;59.00;;;;;;8268311;28;20065;-52
2023/06/24 02:47:48;;;;;;;0.65;0.65;;;22.30;59.00;;;;;;8268525;28;20439;-50
2023/06/24 02:51:49;;;;;;;0.73;0.60;;;22.30;59.00;;;;;;8268590;28;20034;-49
2023/06/24 02:55:50;;;;;;;0.57;0.57;;;22.20;58.90;;;;;;8267835;28;20042;-52
2023/06/24 02:59:51;;;;;;;0.60;0.60;;;22.30;59.00;;;;;;8270018;28;20046;-51
2023/06/24 03:03:54;;;;;;;0.60;0.60;;;22.30;59.00;;;;;;8267495;28;20051;-52
2023/06/24 03:07:56;;;;;;;0.57;0.57;;;22.30;59.00;;;;;;8268494;28;20051;-51
2023/06/24 03:11:57;;;;;;;0.60;0.60;;;22.30;59.00;;;;;;8267180;28;20049;-52
2023/06/24 03:15:58;;;;;;;0.55;0.55;;;22.30;58.90;;;;;;8268091;28;20527;-52
2023/06/24 03:19:59;;;;;;;0.60;0.60;;;22.30;59.00;;;;;;8267031;28;20038;-51
2023/06/24 03:23:59;;;;;;;0.50;0.50;;;22.30;59.00;;;;;;8267912;28;20049;-52
2023/06/24 03:28:01;;;;;;;0.63;0.63;;;22.30;59.00;;;;;;8267787;28;20034;-51
2023/06/24 03:32:01;;;;;;;;;;;22.30;59.00;;;;;;8267574;28;20046;-49
2023/06/24 03:36:02;;;;;;;0.60;0.60;;;22.20;58.90;;;;;;8267597;28;19960;-51
2023/06/24 03:40:04;;;;;;;0.50;0.50;;;22.30;59.50;;;;;;8266457;28;20528;-51
2023/06/24 03:44:04;;;;;;;;;;;22.20;58.90;;;;;;8267875;28;20037;-51
2023/06/24 03:48:05;;;;;;;0.93;0.93;;;22.20;59.00;;;;;;8265902;28;20287;-51
2023/06/24 03:52:08;;;;;;;0.60;0.60;;;22.20;58.90;;;;;;8266555;28;20030;-52
2023/06/24 03:56:09;;;;;;;0.68;0.60;;;22.20;58.90;;;;;;8265709;28;20092;-52
2023/06/24 04:00:15;;;;;;;0.50;0.50;;;22.20;58.90;;;;;;8267497;28;20034;-53
2023/06/24 04:04:16;;;;;;;0.57;0.57;;;22.20;58.90;;;;;;8266240;28;20361;-51
2023/06/24 04:08:17;;;;;;;0.88;0.73;;;22.20;58.90;;;;;;8265815;28;20054;-50
2023/06/24 04:12:17;;;;;;;0.70;0.70;;;22.20;58.90;;;;;;8265224;28;20061;-49
2023/06/24 04:16:18;;;;;;;0.70;0.68;;;22.20;58.90;;;;;;8265273;28;20058;-50
2023/06/24 04:20:19;;;;;;;1.00;0.60;;;22.20;58.90;;;;;;8266249;28;20049;-53
2023/06/24 04:24:20;;;;;;;0.70;0.70;;;22.20;58.90;;;;;;8265198;28;20036;-52
2023/06/24 04:28:20;;;;;;;;;;;22.20;58.90;;;;;;8265885;28;20022;-51
2023/06/24 04:32:21;;;;;;;0.57;0.57;;;22.20;58.90;;;;;;8264811;28;19933;-52
2023/06/24 04:36:22;;;;;;;0.60;0.60;;;22.20;58.90;;;;;;8265706;28;20072;-52
2023/06/24 04:40:22;;;;;;;0.82;0.75;;;22.20;58.90;;;;;;8264346;28;20509;-51
2023/06/24 04:44:23;;;;;;;1.02;0.90;;;22.20;58.90;;;;;;8265870;28;20416;-53
2023/06/24 04:48:24;;;;;;;0.60;0.60;;;22.20;58.90;;;;;;8264701;28;20034;-52
2023/06/24 04:52:25;;;;;;;;;;;22.20;58.90;;;;;;8264749;28;20500;-52
2023/06/24 04:56:25;;;;;;;0.50;0.50;;;22.20;59.00;;;;;;8265874;28;19916;-49
2023/06/24 05:00:26;;;;;;;0.60;0.60;;;22.20;58.90;;;;;;8263748;28;20484;-52
2023/06/24 05:04:27;;;;;;;0.60;0.60;;;22.20;59.00;;;;;;8263923;28;20231;-49
2023/06/24 05:08:27;;;;;;;0.82;0.80;;;22.20;59.00;;;;;;8263709;28;20431;-52
2023/06/24 05:12:28;;;;;;;0.80;0.68;;;22.20;59.00;;;;;;8264906;28;20038;-51
2023/06/24 05:16:29;;;;;;;0.82;0.70;;;22.20;59.00;;;;;;8263229;28;20037;-52
2023/06/24 05:20:29;;;;;;;0.63;0.60;;;22.20;59.00;;;;;;8264951;28;20070;-53
2023/06/24 05:24:30;;;;;;;0.63;0.63;;;22.20;59.00;;;;;;8263006;28;20038;-52
2023/06/24 05:28:31;;;;;;;0.75;0.60;;;22.20;59.00;;;;;;8264870;28;20377;-51
2023/06/24 05:32:31;;;;;;;0.70;0.70;;;22.20;58.90;;;;;;8263500;28;20100;-51
2023/06/24 05:36:32;;;;;;;0.90;0.73;;;22.20;58.90;;;;;;8263631;28;20097;-52
2023/06/24 05:40:33;;;;;;;0.63;0.63;;;22.20;58.90;;;;;;8264358;28;20034;-49
2023/06/24 05:44:33;;;;;;;0.63;0.57;;;22.20;58.90;;;;;;8263898;28;20512;-52
2023/06/24 05:48:35;;;;;;;0.60;0.60;;;22.20;59.00;;;;;;8263488;28;20034;-51
2023/06/24 05:52:36;;;;;;;0.90;0.88;;;22.20;58.90;;;;;;8261877;28;20042;-48
2023/06/24 05:56:37;;;;;;;0.82;0.73;;;22.20;59.00;;;;;;8263431;28;20034;-51
2023/06/24 06:00:37;;;;;;;0.50;0.50;;;22.20;58.90;;;;;;8261587;28;20042;-50
2023/06/24 06:04:38;;;;;;;0.45;0.43;;;22.20;58.90;;;;;;8262335;28;20088;-50
2023/06/24 06:08:39;;;;;;;;;;;22.20;58.90;;;;;;8262520;28;20117;-51
2023/06/24 06:12:40;;;;;;;0.70;0.70;;;22.20;58.90;;;;;;8264230;28;19918;-51
2023/06/24 06:16:40;;;;;;;0.50;0.50;;;22.20;58.90;;;;;;8265818;28;20038;-51
2023/06/24 06:20:41;;;;;;;0.60;0.60;;;22.20;58.90;;;;;;8269986;28;20038;-53
2023/06/24 06:24:42;;;;;;;0.60;0.60;;;22.20;58.90;;;;;;8270063;28;20041;-50
2023/06/24 06:28:42;;;;;;;0.55;0.45;;;22.20;59.00;;;;;;8269402;28;20072;-52
2023/06/24 06:32:43;;;;;;;0.60;0.55;;;22.20;59.00;;;;;;8269753;28;20070;-52
2023/06/24 06:36:44;;;;;;;0.40;0.40;;;22.20;59.00;;;;;;8268669;28;20041;-51
2023/06/24 06:40:44;;;;;;;0.63;0.63;;;22.20;58.90;;;;;;8269324;28;20141;-52
2023/06/24 06:44:45;;;;;;;0.80;0.80;;;22.20;59.00;;;;;;8267918;28;20038;-52
2023/06/24 06:48:45;;;;;;;0.60;0.60;;;22.20;58.90;;;;;;8269307;28;20045;-49
2023/06/24 06:52:46;;;;;;;0.50;0.50;;;22.20;58.90;;;;;;8267468;28;20038;-50
2023/06/24 06:56:47;;;;;;;0.63;0.60;;;22.20;58.90;;;;;;8269416;28;20034;-52
2023/06/24 07:00:47;;;;;;;0.60;0.60;;;22.20;58.90;;;;;;8268303;28;20121;-51
2023/06/24 07:04:50;;;;;;;0.60;0.60;;;22.20;58.90;;;;;;8266854;28;20035;-53
2023/06/24 07:08:51;;;;;;;0.60;0.50;;;22.20;58.90;;;;;;8268459;28;20448;-52
2023/06/24 07:12:57;;;;;;;0.60;0.60;;;22.20;58.90;;;;;;8267292;28;20065;-52
2023/06/24 07:16:58;;;;;;;0.60;0.60;;;22.20;58.90;;;;;;8268179;28;20026;-52
2023/06/24 07:21:01;;;;;;;0.75;0.73;;;22.20;58.90;;;;;;8267090;28;20037;-53
2023/06/24 07:25:02;;;;;;;0.60;0.60;;;22.20;58.90;;;;;;8267975;28;20054;-52
2023/06/24 07:29:06;;;;;;;0.52;0.52;;;22.20;58.90;;;;;;8266310;28;20065;-51
2023/06/24 07:33:07;;;;;;;0.73;0.68;;;22.20;59.40;;;;;;8267668;28;20034;-52
2023/06/24 07:37:08;;;;;;;0.50;0.50;;;22.20;58.90;;;;;;8266924;28;20108;-52
2023/06/24 07:41:09;;;;;;;0.60;0.60;;;22.20;58.90;;;;;;8266823;28;20040;-52
2023/06/24 07:45:10;;;;;;;0.63;0.60;;;22.20;58.90;;;;;;8266145;28;20038;-50
2023/06/24 07:49:10;;;;;;;;;;;22.20;58.90;;;;;;8266663;28;20093;-52
2023/06/24 07:53:11;;;;;;;0.90;0.90;;;22.20;58.90;;;;;;8267032;28;19913;-50
2023/06/24 07:57:12;;;;;;;1.23;0.93;;;22.20;58.90;;;;;;8266349;28;20038;-52
2023/06/24 08:01:12;;;;;;;0.57;0.52;;;22.20;58.90;;;;;;8266803;28;20119;-51
2023/06/24 08:05:13;;;;;;;0.60;0.60;;;22.20;59.00;;;;;;8265634;28;20038;-51
2023/06/24 08:09:15;;;;;;;0.90;0.70;;;22.20;58.90;;;;;;8266436;28;20065;-52
2023/06/24 08:13:16;;;;;;;0.60;0.60;;;22.20;58.90;;;;;;8265273;28;20077;-49
2023/06/24 08:17:16;;;;;;;0.85;0.60;;;22.20;58.90;;;;;;8266478;28;20027;-51
2023/06/24 08:21:17;;;;;;;0.60;0.60;;;22.20;58.90;;;;;;8265434;28;20035;-51
2023/06/24 08:25:18;;;;;;;0.70;0.70;;;22.20;58.90;;;;;;8265481;28;20034;-52
2023/06/24 08:29:18;;;;;;;0.70;0.70;;;22.20;58.90;;;;;;8290485;28;20061;-50
2023/06/24 08:33:19;;;;;;;0.70;0.70;;;22.20;58.90;;;;;;8296982;28;20068;-51
2023/06/24 08:37:20;;;;;;;0.93;0.63;;;22.20;58.90;;;;;;8298212;28;20034;-52
2023/06/24 08:41:22;;;;;;;0.63;0.60;;;22.20;58.90;;;;;;8296420;28;20573;-52
2023/06/24 08:45:22;;;;;;;0.68;0.50;;;22.20;58.90;;;;;;8298033;28;20128;-51
2023/06/24 08:49:23;;;;;;;0.60;0.60;;;22.20;58.90;;;;;;8296752;28;20033;-52
2023/06/24 08:53:25;;;;;;;1.23;0.55;;;22.20;58.90;;;;;;8297631;28;20030;-52
2023/06/24 08:57:26;;;;;;;0.50;0.50;;;22.20;58.90;;;;;;8296468;28;20442;-52
2023/06/24 09:01:27;;;;;;;0.70;0.70;;;22.20;58.80;;;;;;8297464;28;20030;-53
2023/06/24 09:05:28;;;;;;;0.80;0.80;;;22.20;58.90;;;;;;8296545;28;20068;-52
2023/06/24 09:09:28;;;;;;;0.63;0.60;;;22.20;58.90;;;;;;8296798;28;20526;-51
2023/06/24 09:13:36;;;;;;;0.57;0.57;;;22.20;58.90;;;;;;8297199;28;20618;-53
2023/06/24 09:17:46;;;;;;;0.60;0.60;;;22.20;58.90;;;;;;8295613;28;20557;-51
2023/06/24 09:21:46;;;;;;;0.50;0.50;;;22.20;58.90;;;;;;8296943;28;20424;-51
2023/06/24 09:25:58;;;;;;;0.70;0.60;;;22.20;58.90;;;;;;8295545;28;20092;-52
2023/06/24 09:29:59;;;;;;;0.63;0.57;;;22.20;58.90;;;;;;8267580;28;20105;-52
2023/06/24 09:34:00;;;;;;;0.57;0.50;;;22.20;58.90;;;;;;8263849;28;20041;-52
2023/06/24 09:38:01;;;;;;;0.70;0.60;;;22.20;58.90;;;;;;8263494;28;20034;-51
2023/06/24 09:42:02;;;;;;;0.52;0.52;;;22.20;58.80;;;;;;8264374;28;20058;-52
2023/06/24 09:46:04;;;;;;;;;;;22.20;58.80;;;;;;8263276;28;20034;-52
2023/06/24 09:50:05;;;;;;;0.73;0.60;;;22.20;58.80;;;;;;8263488;28;19916;-51
2023/06/24 09:54:07;;;;;;;0.73;0.70;;;22.20;58.90;;;;;;8269558;28;20031;-52
2023/06/24 09:58:08;;;;;;;0.70;0.70;;;22.20;58.90;;;;;;8271602;28;20499;-53
2023/06/24 10:02:13;;;;;;;0.60;0.60;;;22.20;58.80;;;;;;8267969;28;20444;-53
2023/06/24 10:06:14;;;;;;;0.65;0.65;;;22.20;58.80;;;;;;8270425;28;20065;-53
2023/06/24 10:10:15;;;;;;;0.63;0.60;;;22.20;58.80;;;;;;8269561;28;20051;-51
2023/06/24 10:14:16;;;;;;;0.52;0.52;;;22.20;58.80;;;;;;8269366;28;20042;-49
2023/06/24 10:18:36;;;;;;;0.70;0.70;;;22.20;58.80;;;;;;8269277;28;20031;-52
2023/06/24 10:22:37;;;;;;;0.65;0.60;;;22.20;58.80;;;;;;8268396;28;20057;-51
2023/06/24 10:26:40;;;;;;;0.52;0.50;;;22.20;58.80;;;;;;8272837;28;20073;-52
2023/06/24 10:30:55;;;;;;;0.73;0.68;;;22.20;58.80;;;;;;8300822;28;20032;-50
2023/06/24 10:34:57;;;;;;;0.63;0.55;;;22.20;58.80;;;;;;8302433;28;20037;-51
2023/06/24 10:38:57;;;;;;;0.75;0.70;;;22.20;58.80;;;;;;8301240;28;20026;-52
2023/06/24 10:43:00;;;;;;;1.50;0.50;;;22.20;58.80;;;;;;8301200;28;20037;-51
2023/06/24 10:47:01;;;;;;;0.60;0.60;;;22.20;58.80;;;;;;8301978;28;20034;-51
2023/06/24 10:51:01;;;;;;;0.40;0.40;;;22.20;58.80;;;;;;8300328;28;20034;-53
2023/06/24 10:55:03;;;;;;;0.63;0.63;;;22.20;58.80;;;;;;8301545;28;20546;-53
2023/06/24 10:59:04;;;;;;;1.00;0.90;;;22.20;58.80;;;;;;8300119;28;20021;-51
2023/06/24 11:03:22;;;;;;;0.77;0.77;;;22.20;58.80;;;;;;8301089;28;20037;-52
2023/06/24 11:07:25;;;;;;;1.02;0.60;;;22.20;58.80;;;;;;8300579;28;20522;-52
2023/06/24 11:11:26;;;;;;;1.05;0.75;;;22.20;58.80;;;;;;8300071;28;20052;-53
2023/06/24 11:15:26;;;;;;;0.60;0.60;;;22.20;58.80;;;;;;8300684;28;20033;-51
2023/06/24 11:19:27;;;;;;;0.60;0.60;;;22.20;58.70;;;;;;8299510;28;20176;-52
2023/06/24 11:23:28;;;;;;;0.50;0.50;;;22.20;58.80;;;;;;8300521;28;20038;-51
2023/06/24 11:27:30;;;;;;;0.50;0.50;;;22.20;58.80;;;;;;8298994;28;20034;-52
2023/06/24 11:31:34;;;;;;;0.50;0.50;;;22.20;58.70;;;;;;8300101;28;20034;-51
2023/06/24 11:35:36;;;;;;;0.50;0.50;;;22.30;58.80;;;;;;8297872;28;20034;-52
2023/06/24 11:39:37;;;;;;;0.73;0.73;;;22.20;58.70;;;;;;8300164;28;20030;-51
2023/06/24 11:43:37;;;;;;;0.93;0.85;;;22.20;58.70;;;;;;8299161;28;20038;-51
2023/06/24 11:47:39;;;;;;;0.60;0.60;;;22.20;58.80;;;;;;8300067;28;20034;-51
2023/06/24 11:51:47;;;;;;;0.63;0.63;;;22.20;58.70;;;;;;8298939;28;20045;-52
2023/06/24 11:55:52;;;;;;;0.63;0.63;;;22.20;58.80;;;;;;8298214;28;20539;-51
2023/06/24 11:59:52;;;;;;;0.65;0.65;;;22.20;58.70;;;;;;8271118;28;20044;-51
2023/06/24 12:03:53;;;;;;;0.60;0.50;;;22.20;58.70;;;;;;8265274;28;20064;-52
2023/06/24 12:07:57;;;;;;;0.85;0.82;;;22.30;58.70;;;;;;8266667;28;20697;-52
2023/06/24 12:11:58;;;;;;;0.57;0.57;;;22.30;59.30;;;;;;8265363;28;20034;-51
2023/06/24 12:15:59;;;;;;;0.70;0.70;;;22.20;58.60;;;;;;8265958;28;20062;-52
2023/06/24 12:19:59;;;;;;;0.75;0.68;;;22.30;58.70;;;;;;8266116;28;20476;-52
2023/06/24 12:24:01;;;;;;;0.70;0.68;;;22.30;58.70;;;;;;8265386;28;20484;-53
2023/06/24 12:28:02;;;;;;;0.90;0.70;;;22.30;58.60;;;;;;8266128;28;20026;-52
2023/06/24 12:32:03;;;;;;;0.65;0.65;;;22.30;58.60;;;;;;8266249;28;20038;-52
2023/06/24 12:36:04;;;;;;;0.75;0.70;;;22.30;58.70;;;;;;8265896;28;20034;-52
2023/06/24 12:40:05;;;;;;;;;;;22.30;58.60;;;;;;8264965;28;20109;-52
2023/06/24 12:44:05;;;;;;;0.63;0.63;;;22.30;58.60;;;;;;8265572;28;19916;-51
2023/06/24 12:48:06;;;;;;;0.50;0.50;;;22.30;58.60;;;;;;8264293;28;20040;-50
2023/06/24 12:52:07;;;;;;;0.80;0.80;;;22.30;58.60;;;;;;8265272;28;20096;-51
2023/06/24 12:56:08;;;;;;;0.95;0.70;;;22.30;58.60;;;;;;8264412;28;20229;-52
2023/06/24 13:00:10;;;;;;;0.98;0.57;;;22.30;58.60;;;;;;8295259;28;20030;-50
2023/06/24 13:04:11;;;;;;;0.73;0.73;;;22.30;58.60;;;;;;8297026;28;20033;-52
2023/06/24 13:08:12;;;;;;;;;;;22.30;58.60;;;;;;8297126;28;20137;-53
2023/06/24 13:12:13;;;;;;;0.57;0.57;;;22.30;58.60;;;;;;8297129;28;19913;-51
2023/06/24 13:16:13;;;;;;;0.80;0.80;;;22.30;58.60;;;;;;8295925;28;20080;-51
2023/06/24 13:20:14;;;;;;;0.60;0.60;;;22.30;58.60;;;;;;8297834;28;20036;-51
2023/06/24 13:24:15;;;;;;;0.70;0.55;;;22.30;58.60;;;;;;8295733;28;20037;-51
2023/06/24 13:28:15;;;;;;;0.70;0.68;;;22.30;58.60;;;;;;8281156;28;20038;-49
2023/06/24 13:32:16;;;;;;;0.88;0.60;;;22.30;58.60;;;;;;8263245;28;20476;-51
2023/06/24 13:36:31;;;;;;;0.75;0.70;;;22.30;58.60;;;;;;8263348;28;20042;-51
2023/06/24 13:40:31;;;;;;;0.60;0.60;;;22.40;58.60;;;;;;8262759;28;20027;-51
2023/06/24 13:44:32;;;;;;;0.82;0.60;;;22.30;58.50;;;;;;8264186;28;20034;-52
2023/06/24 13:48:32;;;;;;;0.70;0.70;;;22.30;58.50;;;;;;8264429;28;20014;-52
2023/06/24 13:52:33;;;;;;;0.90;0.82;;;22.30;58.50;;;;;;8262301;28;20038;-50
2023/06/24 13:56:34;;;;;;;0.50;0.50;;;22.30;58.50;;;;;;8263049;28;20031;-52
2023/06/24 14:00:34;;;;;;;0.63;0.63;;;22.40;58.50;;;;;;8260633;28;20045;-50
2023/06/24 14:04:35;;;;;;;0.50;0.50;;;22.40;58.50;;;;;;8262287;28;20429;-50
2023/06/24 14:08:36;;;;;;;0.40;0.40;;;22.40;58.50;;;;;;8262586;28;20089;-50
2023/06/24 14:12:37;;;;;;;0.57;0.57;;;22.40;58.50;;;;;;8263957;28;20109;-50
2023/06/24 14:16:38;;;;;;;0.50;0.50;;;22.40;58.50;;;;;;8262638;28;20061;-53
2023/06/24 14:20:38;;;;;;;0.60;0.60;;;22.40;58.50;;;;;;8263983;28;20061;-53
2023/06/24 14:24:39;;;;;;;0.85;0.80;;;22.40;58.50;;;;;;8262979;28;20023;-52
2023/06/24 14:28:39;;;;;;;1.10;0.70;;;22.40;58.50;;;;;;8263629;28;20234;-52
2023/06/24 14:32:40;;;;;;;0.90;0.88;;;22.40;58.50;;;;;;8263228;28;20042;-52
2023/06/24 14:36:41;;;;;;;0.80;0.80;;;22.40;58.50;;;;;;8264253;28;20064;-51
2023/06/24 14:40:41;;;;;;;0.75;0.60;;;22.40;58.50;;;;;;8269742;28;20031;-52
2023/06/24 14:44:42;;;;;;;0.60;0.57;;;22.40;58.50;;;;;;8268193;28;20109;-51
2023/06/24 14:48:43;;;;;;;0.60;0.60;;;22.40;58.50;;;;;;8269527;28;20039;-51
2023/06/24 14:52:44;;;;;;;0.95;0.65;;;22.40;58.50;;;;;;8267842;28;20065;-51
2023/06/24 14:56:45;;;;;;;0.70;0.65;;;22.40;58.50;;;;;;8269711;28;20045;-50
2023/06/24 15:00:46;;;;;;;1.10;0.75;;;22.40;58.50;;;;;;8267752;28;20038;-52
2023/06/24 15:04:46;;;;;;;0.68;0.68;;;22.40;58.40;;;;;;8269233;28;20069;-50
2023/06/24 15:08:47;;;;;;;0.60;0.60;;;22.40;58.40;;;;;;8267852;28;20058;-51
2023/06/24 15:12:48;;;;;;;0.75;0.75;;;22.40;58.40;;;;;;8267994;28;20058;-52
2023/06/24 15:16:50;;;;;;;0.50;0.50;;;22.50;58.50;;;;;;8268206;28;20049;-52
2023/06/24 15:20:51;;;;;;;0.55;0.55;;;22.40;58.40;;;;;;8266931;28;20046;-52
2023/06/24 15:24:51;;;;;;;0.77;0.77;;;22.40;58.50;;;;;;8268337;28;20105;-51
2023/06/24 15:28:53;;;;;;;0.60;0.60;;;22.40;58.50;;;;;;8267895;28;20034;-51
2023/06/24 15:32:54;;;;;;;0.70;0.68;;;22.40;58.50;;;;;;8267855;28;20034;-52
2023/06/24 15:36:55;;;;;;;0.70;0.68;;;22.40;58.50;;;;;;8266688;28;20064;-53
2023/06/24 15:40:55;;;;;;;1.02;0.77;;;22.30;58.50;;;;;;8267763;28;20039;-52
2023/06/24 15:44:56;;;;;;;0.82;0.70;;;22.40;58.60;;;;;;8266233;28;20041;-51
2023/06/24 15:48:57;;;;;;;1.02;0.73;;;22.30;58.50;;;;;;8266738;28;20042;-52
2023/06/24 15:52:58;;;;;;;0.70;0.70;;;22.40;58.60;;;;;;8266620;28;20030;-53
2023/06/24 15:56:58;;;;;;;0.55;0.55;;;22.40;58.50;;;;;;8267247;28;20034;-51
2023/06/24 16:00:59;;;;;;;0.82;0.80;;;22.40;58.50;;;;;;8265799;28;20034;-51
2023/06/24 16:05:04;;;;;;;0.63;0.63;;;22.30;58.50;;;;;;8265681;28;20031;-53
2023/06/24 16:09:05;;;;;;;0.70;0.60;;;22.40;58.50;;;;;;8266618;28;20089;-51
2023/06/24 16:13:06;;;;;;;0.70;0.70;;;22.40;58.50;;;;;;8265477;28;20070;-52
2023/06/24 16:17:06;;;;;;;0.77;0.77;;;22.40;58.50;;;;;;8266616;28;20117;-53
2023/06/24 16:21:07;;;;;;;0.60;0.60;;;22.40;58.50;;;;;;8265237;28;20045;-51
2023/06/24 16:25:08;;;;;;;0.90;0.77;;;22.40;58.50;;;;;;8266518;28;20034;-52
2023/06/24 16:29:09;;;;;;;0.82;0.80;;;22.40;58.50;;;;;;8265756;28;20030;-50
2023/06/24 16:33:09;;;;;;;0.80;0.77;;;22.40;58.40;;;;;;8265677;28;20046;-53
2023/06/24 16:37:10;;;;;;;0.75;0.68;;;22.40;58.40;;;;;;8265428;28;20026;-51
2023/06/24 16:41:11;;;;;;;0.55;0.55;;;22.40;58.40;;;;;;8265337;28;20046;-51
2023/06/24 16:45:12;;;;;;;2.80;1.70;;;22.40;58.40;;;;;;8287322;28;20490;-49
2023/06/24 16:49:12;;;;;;;4.10;2.30;;;22.60;56.90;;;;;;8296533;28;20049;-47
2023/06/24 16:53:13;;;;;;;4.35;2.33;;;22.70;57.20;;;;;;8297980;28;20021;-50
2023/06/24 16:57:14;;;;;;;5.20;3.13;;;22.80;55.10;;;;;;8288189;28;20037;-53
2023/06/24 17:01:14;;;;;;;3.60;2.85;;;22.90;53.10;;;;;;8263921;28;20050;-51
2023/06/24 17:05:15;;;;;;;5.85;3.30;;;22.90;51.70;;;;;;8618206;23;20061;-56
2023/06/24 17:09:16;;;;;;;7.85;4.13;;;22.90;53.10;;;;;;8294461;28;20172;-52
2023/06/24 17:13:16;;;;;;;6.35;3.90;;;22.90;51.90;;;;;;8294677;28;20049;-53
2023/06/24 17:17:17;;;;;;;9.95;3.90;;;22.90;50.60;;;;;;8294524;28;20029;-54
2023/06/24 17:21:18;;;;;;;5.97;4.03;;;22.90;50.40;;;;;;8295219;28;20068;-56
2023/06/24 17:25:18;;;;;;;6.90;4.50;;;22.90;50.10;;;;;;8294692;28;20391;-55
2023/06/24 17:29:19;;;;;;;8.40;5.93;;;22.90;50.60;;;;;;8294553;28;20474;-55
2023/06/24 17:33:20;;;;;;;7.88;4.72;;;22.90;49.70;;;;;;8294509;28;20037;-54
2023/06/24 17:37:21;;;;;;;8.52;5.45;;;22.90;50.90;;;;;;8294997;28;20101;-54
2023/06/24 17:41:22;;;;;;;7.30;4.97;;;22.90;48.90;;;;;;8294018;28;20076;-56
2023/06/24 17:45:23;;;;;;;9.10;4.75;;;22.90;48.60;;;;;;8294067;28;20044;-56
2023/06/24 17:49:24;;;;;;;8.93;5.40;;;22.90;49.70;;;;;;8294119;28;20038;-57
2023/06/24 17:53:25;;;;;;;6.78;5.15;;;22.90;48.80;;;;;;8293884;28;20045;-55
2023/06/24 17:57:25;;;;;;;8.20;4.95;;;22.90;48.80;;;;;;8294310;28;20026;-54
2023/06/24 18:01:28;;;;;;;10.43;6.30;;;22.90;50.00;;;;;;8293639;28;20559;-56
2023/06/24 18:05:29;;;;;;;7.18;4.75;;;22.90;49.20;;;;;;8293478;28;20070;-55
2023/06/24 18:09:30;;;;;;;7.20;4.40;;;22.90;49.80;;;;;;8292419;28;20041;-54
2023/06/24 18:13:30;;;;;;;7.20;4.95;;;22.90;49.30;;;;;;8297488;28;20041;-56
2023/06/24 18:17:31;;;;;;;8.48;4.68;;;22.90;50.40;;;;;;8300136;28;20056;-56
2023/06/24 18:21:32;;;;;;;7.65;4.90;;;22.80;50.50;;;;;;8298701;28;20045;-56
2023/06/24 18:25:32;;;;;;;14.52;4.60;;;22.70;51.80;;;;;;8299883;28;20069;-54
2023/06/24 18:29:33;;;;;;;6.35;4.20;;;22.70;52.60;;;;;;8273299;28;20070;-53
2023/06/24 18:33:34;;;;;;;6.93;4.82;;;22.70;52.40;;;;;;8266168;28;20049;-54
2023/06/24 18:37:35;;;;;;;5.40;4.07;;;22.70;53.20;;;;;;8266898;28;20618;-54
2023/06/24 18:41:36;;;;;;;;;;;22.70;53.30;;;;;;8267684;28;20034;-55
2023/06/24 18:45:37;;;;;;;6.73;4.23;;;22.60;53.70;;;;;;8266595;28;19924;-56
2023/06/24 18:49:37;;;;;;;7.20;5.18;;;22.70;53.90;;;;;;8266805;28;20304;-54
2023/06/24 18:53:38;;;;;;;6.95;4.05;;;22.70;54.30;;;;;;8266605;28;20042;-55
2023/06/24 18:57:38;;;;;;;9.05;5.35;;;22.60;54.30;;;;;;8266373;28;20034;-54
2023/06/24 19:01:39;;;;;;;9.10;3.78;;;22.60;54.70;;;;;;8265350;28;20041;-59
2023/06/24 19:05:40;;;;;;;7.20;4.22;;;22.60;55.00;;;;;;8266049;28;20066;-55
2023/06/24 19:09:40;;;;;;;5.93;4.07;;;22.60;55.00;;;;;;8266043;28;20034;-54
2023/06/24 19:13:41;;;;;;;8.55;4.28;;;22.60;55.00;;;;;;8266169;28;20170;-54
2023/06/24 19:17:41;;;;;;;5.90;3.75;;;22.60;55.30;;;;;;8265959;28;20542;-55
2023/06/24 19:21:42;;;;;;;5.63;3.78;;;22.60;55.40;;;;;;8265780;28;20658;-57
2023/06/24 19:25:43;;;;;;;5.93;4.40;;;22.60;55.60;;;;;;8264509;28;20514;-53
2023/06/24 19:29:44;;;;;;;7.50;4.00;;;22.60;55.80;;;;;;8265534;28;20655;-53
2023/06/24 19:33:45;;;;;;;4.63;3.75;;;22.50;55.80;;;;;;8265266;28;20041;-54
2023/06/24 19:37:45;;;;;;;5.72;3.92;;;22.50;55.90;;;;;;8265473;28;20066;-54
2023/06/24 19:41:46;;;;;;;8.57;4.32;;;22.60;56.00;;;;;;8264923;28;20042;-54
2023/06/24 19:45:48;;;;;;;5.82;3.70;;;22.60;55.80;;;;;;8264888;28;20479;-53
2023/06/24 19:49:52;;;;;;;6.85;3.67;;;22.60;56.00;;;;;;8264993;28;20463;-53
2023/06/24 19:53:53;;;;;;;5.72;3.50;;;22.60;56.00;;;;;;8264467;28;20066;-53
2023/06/24 19:57:53;;;;;;;5.35;4.03;;;22.60;56.20;;;;;;8264612;28;20030;-55
2023/06/24 20:01:54;;;;;;;5.32;3.60;;;22.60;56.40;;;;;;8264534;28;20043;-53
2023/06/24 20:05:55;;;;;;;5.32;3.58;;;22.60;56.40;;;;;;8263822;28;20108;-53
2023/06/24 20:09:55;;;;;;;6.30;3.85;;;22.60;56.50;;;;;;8263396;28;20487;-57
2023/06/24 20:13:58;;;;;;;8.95;4.03;;;22.60;56.50;;;;;;8264149;28;20041;-53
2023/06/24 20:17:59;;;;;;;8.77;3.70;;;22.70;56.50;;;;;;8264035;28;20121;-53
2023/06/24 20:22:00;;;;;;;4.32;3.58;;;22.60;56.50;;;;;;8263791;28;20061;-54
2023/06/24 20:26:00;;;;;;;6.15;3.70;;;22.60;56.50;;;;;;8263804;28;20503;-54
2023/06/24 20:30:01;;;;;;;5.13;2.97;;;22.60;56.50;;;;;;8263722;28;20071;-55
2023/06/24 20:34:01;;;;;;;5.63;3.80;;;22.60;56.70;;;;;;8262585;28;20038;-55
2023/06/24 20:38:02;;;;;;;4.47;3.40;;;22.60;56.60;;;;;;8261957;28;20424;-57
2023/06/24 20:42:03;;;;;;;6.35;3.60;;;22.70;56.80;;;;;;8263020;28;20038;-54
2023/06/24 20:46:04;;;;;;;;;;;22.60;56.70;;;;;;8264447;28;20034;-54
2023/06/24 20:50:05;;;;;;;4.37;3.03;;;22.60;56.60;;;;;;8295042;28;19909;-57
2023/06/24 20:54:06;;;;;;;4.63;3.40;;;22.70;56.60;;;;;;8261769;28;20039;-56
2023/06/24 20:58:07;;;;;;;11.05;3.92;;;22.70;56.70;;;;;;8262816;28;20125;-55
2023/06/24 21:02:07;;;;;;;6.93;4.18;;;22.70;57.30;;;;;;8262501;28;20038;-54